createdAt,value
2023-04-11T00:00:14.082Z,11.03
2023-04-11T00:02:41.416Z,11.01
2023-04-11T00:05:09.898Z,11.00
2023-04-11T00:07:37.456Z,10.95
2023-04-11T00:10:07.082Z,10.95
2023-04-11T00:12:34.198Z,10.92
2023-04-11T00:15:01.295Z,10.90
2023-04-11T00:17:31.553Z,10.89
2023-04-11T00:20:08.096Z,10.88
2023-04-11T00:22:35.889Z,10.86
2023-04-11T00:25:03.036Z,10.83
2023-04-11T00:27:30.216Z,10.79
2023-04-11T00:29:58.153Z,10.76
2023-04-11T00:32:25.662Z,10.72
2023-04-11T00:34:52.732Z,10.67
2023-04-11T00:37:21.627Z,10.62
2023-04-11T00:39:50.579Z,10.55
2023-04-11T00:42:17.829Z,10.52
2023-04-11T00:44:45.311Z,10.47
2023-04-11T00:47:13.120Z,10.43
2023-04-11T00:49:41.723Z,10.42
2023-04-11T00:52:09.417Z,10.42
2023-04-11T00:54:36.895Z,10.43
2023-04-11T00:57:07.439Z,10.46
2023-04-11T00:59:35.320Z,10.50
2023-04-11T01:02:02.738Z,10.54
2023-04-11T01:04:29.956Z,10.54
2023-04-11T01:07:04.145Z,10.56
2023-04-11T01:09:35.168Z,10.56
2023-04-11T01:12:03.989Z,10.55
2023-04-11T01:14:31.182Z,10.54
2023-04-11T01:17:01.932Z,10.53
2023-04-11T01:19:30.676Z,10.52
2023-04-11T01:21:59.142Z,10.49
2023-04-11T01:24:26.723Z,10.43
2023-04-11T01:26:54.620Z,10.37
2023-04-11T01:29:21.693Z,10.29
2023-04-11T01:31:50.482Z,10.23
2023-04-11T01:34:18.861Z,10.17
2023-04-11T01:36:46.324Z,10.11
2023-04-11T01:39:13.710Z,10.07
2023-04-11T01:41:41.423Z,10.05
2023-04-11T01:44:08.624Z,10.00
2023-04-11T01:46:36.123Z,9.95
2023-04-11T01:49:03.432Z,9.91
2023-04-11T01:51:30.763Z,9.89
2023-04-11T01:53:57.860Z,9.89
2023-04-11T01:56:25.107Z,9.85
2023-04-11T01:58:52.244Z,9.82
2023-04-11T02:01:21.715Z,9.80
2023-04-11T02:03:49.010Z,9.77
2023-04-11T02:06:17.095Z,9.74
2023-04-11T02:08:44.784Z,9.69
2023-04-11T02:11:11.938Z,9.69
2023-04-11T02:13:39.141Z,9.68
2023-04-11T02:16:15.330Z,9.72
2023-04-11T02:18:45.043Z,9.77
2023-04-11T02:21:12.683Z,9.83
2023-04-11T02:23:39.899Z,9.85
2023-04-11T02:26:07.110Z,9.88
2023-04-11T02:28:34.556Z,9.91
2023-04-11T02:31:02.926Z,9.93
2023-04-11T02:33:30.251Z,9.97
2023-04-11T02:35:57.278Z,9.99
2023-04-11T02:38:24.316Z,10.01
2023-04-11T02:40:51.564Z,10.05
2023-04-11T02:43:18.550Z,10.05
2023-04-11T02:45:45.677Z,10.05
2023-04-11T02:48:13.079Z,10.05
2023-04-11T02:50:41.189Z,10.07
2023-04-11T02:53:08.544Z,10.10
2023-04-11T02:55:36.004Z,10.11
2023-04-11T02:58:03.228Z,10.13
2023-04-11T03:00:30.300Z,10.11
2023-04-11T03:02:57.670Z,10.10
2023-04-11T03:05:24.802Z,10.11
2023-04-11T03:07:52.024Z,10.12
2023-04-11T03:10:19.774Z,10.14
2023-04-11T03:12:46.751Z,10.14
2023-04-11T03:15:15.652Z,10.15
2023-04-11T03:17:43.086Z,10.13
2023-04-11T03:20:14.192Z,10.14
2023-04-11T03:22:41.221Z,10.14
2023-04-11T03:25:09.254Z,10.16
2023-04-11T03:27:36.276Z,10.19
2023-04-11T03:30:03.878Z,10.18
2023-04-11T03:32:31.022Z,10.16
2023-04-11T03:35:01.043Z,10.17
2023-04-11T03:37:28.231Z,10.14
2023-04-11T03:39:55.584Z,10.10
2023-04-11T03:42:23.125Z,10.07
2023-04-11T03:44:50.148Z,10.04
2023-04-11T03:47:17.295Z,10.03
2023-04-11T03:49:44.695Z,10.01
2023-04-11T03:52:12.778Z,10.00
2023-04-11T03:54:39.851Z,9.99
2023-04-11T03:57:06.975Z,9.95
2023-04-11T03:59:34.180Z,9.90
2023-04-11T04:02:01.302Z,9.87
2023-04-11T04:04:28.771Z,9.86
2023-04-11T04:06:57.105Z,9.86
2023-04-11T04:09:24.879Z,9.85
2023-04-11T04:11:51.975Z,9.84
2023-04-11T04:14:19.451Z,9.82
2023-04-11T04:16:46.414Z,9.80
2023-04-11T04:19:13.496Z,9.75
2023-04-11T04:21:41.969Z,9.67
2023-04-11T04:24:09.004Z,9.65
2023-04-11T04:26:38.178Z,9.59
2023-04-11T04:29:06.036Z,9.55
2023-04-11T04:31:33.938Z,9.51
2023-04-11T04:34:11.005Z,9.45
2023-04-11T04:36:49.295Z,9.41
2023-04-11T04:39:17.648Z,9.33
2023-04-11T04:41:49.114Z,9.30
2023-04-11T04:44:16.624Z,9.26
2023-04-11T04:46:44.323Z,9.22
2023-04-11T04:49:11.354Z,9.21
2023-04-11T04:51:40.438Z,9.19
2023-04-11T04:54:07.537Z,9.16
2023-04-11T04:56:34.804Z,9.14
2023-04-11T04:59:02.006Z,9.12
2023-04-11T05:01:29.180Z,9.12
2023-04-11T05:04:00.905Z,9.10
2023-04-11T05:06:31.994Z,9.10
2023-04-11T05:09:01.407Z,9.11
2023-04-11T05:11:29.181Z,9.10
2023-04-11T05:13:56.363Z,9.12
2023-04-11T05:16:23.624Z,9.12
2023-04-11T05:18:50.841Z,9.14
2023-04-11T05:21:17.944Z,9.14
2023-04-11T05:23:45.227Z,9.15
2023-04-11T05:26:12.420Z,9.14
2023-04-11T05:28:39.715Z,9.17
2023-04-11T05:31:08.506Z,9.19
2023-04-11T05:33:38.209Z,9.21
2023-04-11T05:36:06.910Z,9.22
2023-04-11T05:38:34.283Z,9.24
2023-04-11T05:41:01.491Z,9.29
2023-04-11T05:43:28.549Z,9.32
2023-04-11T05:45:55.580Z,9.35
2023-04-11T05:48:23.944Z,9.38
2023-04-11T05:50:51.568Z,9.40
2023-04-11T05:53:18.694Z,9.42
2023-04-11T05:55:46.069Z,9.46
2023-04-11T05:58:13.121Z,9.52
2023-04-11T06:00:40.407Z,9.55
2023-04-11T06:03:11.163Z,9.62
2023-04-11T06:05:39.171Z,9.66
2023-04-11T06:08:08.462Z,9.75
2023-04-11T06:10:36.062Z,9.86
2023-04-11T06:13:03.100Z,9.94
2023-04-11T06:15:30.413Z,9.90
2023-04-11T06:17:57.857Z,9.91
2023-04-11T06:20:25.409Z,9.96
2023-04-11T06:22:52.479Z,10.01
2023-04-11T06:25:21.222Z,10.05
2023-04-11T06:27:48.440Z,10.08
2023-04-11T06:30:16.007Z,10.14
2023-04-11T06:32:43.284Z,10.18
2023-04-11T06:35:11.126Z,10.24
2023-04-11T06:37:38.164Z,10.29
2023-04-11T06:40:06.069Z,10.33
2023-04-11T06:42:33.420Z,10.36
2023-04-11T06:45:01.660Z,10.43
2023-04-11T06:47:28.822Z,10.48
2023-04-11T06:49:56.089Z,10.57
2023-04-11T06:52:23.146Z,10.66
2023-04-11T06:54:50.360Z,10.75
2023-04-11T06:57:18.038Z,10.84
2023-04-11T06:59:45.387Z,10.89
2023-04-11T07:02:12.683Z,10.90
2023-04-11T07:04:39.933Z,10.91
2023-04-11T07:07:07.407Z,10.96
2023-04-11T07:09:34.594Z,11.03
2023-04-11T07:12:01.807Z,11.09
2023-04-11T07:14:28.846Z,11.14
2023-04-11T07:16:55.853Z,11.23
2023-04-11T07:19:22.979Z,11.36
2023-04-11T07:21:50.203Z,11.37
2023-04-11T07:24:18.772Z,11.54
2023-04-11T07:26:46.534Z,11.67
2023-04-11T07:29:14.881Z,11.87
2023-04-11T07:31:42.316Z,12.08
2023-04-11T07:34:09.388Z,12.21
2023-04-11T07:36:36.625Z,12.40
2023-04-11T07:39:04.546Z,12.60
2023-04-11T07:41:31.522Z,12.63
2023-04-11T07:43:58.720Z,12.80
2023-04-11T07:46:26.055Z,13.00
2023-04-11T07:48:53.074Z,13.04
2023-04-11T07:51:20.084Z,13.07
2023-04-11T07:53:47.193Z,13.15
2023-04-11T07:56:15.801Z,13.22
2023-04-11T07:58:43.205Z,13.36
2023-04-11T08:01:25.198Z,13.55
2023-04-11T08:03:54.983Z,13.59
2023-04-11T08:06:22.867Z,13.61
2023-04-11T08:08:50.836Z,13.80
2023-04-11T08:11:17.897Z,13.79
2023-04-11T08:13:45.390Z,13.78
2023-04-11T08:16:15.248Z,13.91
2023-04-11T08:18:42.888Z,14.11
2023-04-11T08:21:11.593Z,14.20
2023-04-11T08:23:42.702Z,14.25
2023-04-11T08:26:12.165Z,14.34
2023-04-11T08:28:41.846Z,14.59
2023-04-11T08:31:10.760Z,14.72
2023-04-11T08:33:39.262Z,14.62
2023-04-11T08:36:10.372Z,14.57
2023-04-11T08:38:38.721Z,14.64
2023-04-11T08:41:06.786Z,14.76
2023-04-11T08:43:40.577Z,14.68
2023-04-11T08:46:08.422Z,14.81
2023-04-11T08:48:35.941Z,14.81
2023-04-11T08:51:03.193Z,14.78
2023-04-11T08:53:31.278Z,14.71
2023-04-11T08:56:00.028Z,15.00
2023-04-11T08:58:27.109Z,14.91
2023-04-11T09:00:54.453Z,15.01
2023-04-11T09:03:21.536Z,15.01
2023-04-11T09:05:48.678Z,14.95
2023-04-11T09:08:17.256Z,14.95
2023-04-11T09:10:45.764Z,14.89
2023-04-11T09:13:27.555Z,14.79
2023-04-11T09:16:03.992Z,14.89
2023-04-11T09:18:43.436Z,15.17
2023-04-11T09:21:14.426Z,15.44
2023-04-11T09:23:41.933Z,15.44
2023-04-11T09:26:11.834Z,15.38
2023-04-11T09:28:53.588Z,15.24
2023-04-11T09:31:22.214Z,15.42
2023-04-11T09:33:58.594Z,15.46
2023-04-11T09:36:27.438Z,15.51
2023-04-11T09:38:54.587Z,15.61
2023-04-11T09:41:36.410Z,15.79
2023-04-11T09:44:03.736Z,15.65
2023-04-11T09:46:31.470Z,15.91
2023-04-11T09:49:01.792Z,16.07
2023-04-11T09:51:36.393Z,16.11
2023-04-11T09:54:05.457Z,16.14
2023-04-11T09:56:34.898Z,16.11
2023-04-11T09:59:04.370Z,15.97
2023-04-11T10:01:31.861Z,15.92
2023-04-11T10:04:01.009Z,16.05
2023-04-11T10:06:52.277Z,16.03
2023-04-11T10:09:19.705Z,15.90
2023-04-11T10:11:47.148Z,15.91
2023-04-11T10:14:39.526Z,15.92
2023-04-11T10:17:24.130Z,16.22
2023-04-11T10:19:57.655Z,16.32
2023-04-11T10:22:46.802Z,16.22
2023-04-11T10:25:24.962Z,16.02
2023-04-11T10:28:01.678Z,15.88
2023-04-11T10:30:41.243Z,15.62
2023-04-11T10:33:21.728Z,15.57
2023-04-11T10:36:03.606Z,15.14
2023-04-11T10:38:49.070Z,15.01
2023-04-11T10:41:31.806Z,15.04
2023-04-11T10:44:15.971Z,15.05
2023-04-11T10:46:52.156Z,15.16
2023-04-11T10:49:39.380Z,15.33
2023-04-11T10:52:24.100Z,15.44
2023-04-11T10:54:53.816Z,15.53
2023-04-11T10:57:22.999Z,15.57
2023-04-11T10:59:50.509Z,15.45
2023-04-11T11:02:19.717Z,15.52
2023-04-11T11:04:47.590Z,15.67
2023-04-11T11:07:18.818Z,15.75
2023-04-11T11:09:51.285Z,15.77
2023-04-11T11:12:18.674Z,15.70
2023-04-11T11:14:47.377Z,15.61
2023-04-11T11:17:16.992Z,15.52
2023-04-11T11:19:45.423Z,15.63
2023-04-11T11:22:30.472Z,15.68
2023-04-11T11:25:10.783Z,15.68
2023-04-11T11:27:37.862Z,15.65
2023-04-11T11:30:12.258Z,15.68
2023-04-11T11:32:39.275Z,15.83
2023-04-11T11:35:15.661Z,15.76
2023-04-11T11:37:42.786Z,15.84
2023-04-11T11:40:14.823Z,15.96
2023-04-11T11:42:42.217Z,16.06
2023-04-11T11:45:21.911Z,16.09
2023-04-11T11:47:50.728Z,16.07
2023-04-11T11:50:32.452Z,16.04
2023-04-11T11:53:16.063Z,15.93
2023-04-11T11:55:44.073Z,15.70
2023-04-11T11:58:11.159Z,15.80
2023-04-11T12:00:40.621Z,15.89
2023-04-11T12:03:12.198Z,16.03
2023-04-11T12:05:41.543Z,16.05
2023-04-11T12:08:09.161Z,16.42
2023-04-11T12:10:45.910Z,16.62
2023-04-11T12:13:19.141Z,16.67
2023-04-11T12:15:57.542Z,16.77
2023-04-11T12:18:27.525Z,16.97
2023-04-11T12:20:55.585Z,17.25
2023-04-11T12:23:23.806Z,17.35
2023-04-11T12:25:51.054Z,17.31
2023-04-11T12:28:18.385Z,17.07
2023-04-11T12:30:46.723Z,17.09
2023-04-11T12:33:13.881Z,17.07
2023-04-11T12:35:40.846Z,16.91
2023-04-11T12:38:08.097Z,16.93
2023-04-11T12:40:35.178Z,17.05
2023-04-11T12:43:02.214Z,16.83
2023-04-11T12:45:29.174Z,16.77
2023-04-11T12:47:56.210Z,16.81
2023-04-11T12:50:23.908Z,16.84
2023-04-11T12:52:51.729Z,16.94
2023-04-11T12:55:19.371Z,17.07
2023-04-11T12:57:46.451Z,17.18
2023-04-11T13:00:14.768Z,16.96
2023-04-11T13:02:44.675Z,16.82
2023-04-11T13:05:16.509Z,16.64
2023-04-11T13:07:45.664Z,16.74
2023-04-11T13:10:14.543Z,16.57
2023-04-11T13:12:44.841Z,16.46
2023-04-11T13:15:17.077Z,16.41
2023-04-11T13:17:44.425Z,16.48
2023-04-11T13:20:13.070Z,16.54
2023-04-11T13:22:41.798Z,16.58
2023-04-11T13:25:10.659Z,16.83
2023-04-11T13:27:39.795Z,17.17
2023-04-11T13:30:09.550Z,17.39
2023-04-11T13:32:37.197Z,17.68
2023-04-11T13:35:05.853Z,17.97
2023-04-11T13:37:34.043Z,18.11
2023-04-11T13:40:01.156Z,18.25
2023-04-11T13:42:28.118Z,18.31
2023-04-11T13:44:57.460Z,18.28
2023-04-11T13:47:24.572Z,18.23
2023-04-11T13:49:51.596Z,18.18
2023-04-11T13:52:18.578Z,18.19
2023-04-11T13:54:45.644Z,18.27
2023-04-11T13:57:12.670Z,18.31
2023-04-11T13:59:39.927Z,18.36
2023-04-11T14:02:07.288Z,18.24
2023-04-11T14:04:34.581Z,18.14
2023-04-11T14:07:01.624Z,18.11
2023-04-11T14:09:28.831Z,18.04
2023-04-11T14:11:57.292Z,17.95
2023-04-11T14:14:24.368Z,18.00
2023-04-11T14:16:51.360Z,18.05
2023-04-11T14:19:18.502Z,18.10
2023-04-11T14:21:45.771Z,18.08
2023-04-11T14:24:12.803Z,17.90
2023-04-11T14:26:39.878Z,17.66
2023-04-11T14:29:06.935Z,17.70
2023-04-11T14:31:34.160Z,17.63
2023-04-11T14:34:01.230Z,17.66
2023-04-11T14:36:28.466Z,17.63
2023-04-11T14:38:55.682Z,17.76
2023-04-11T14:41:23.448Z,18.23
2023-04-11T14:43:50.816Z,18.57
2023-04-11T14:46:18.110Z,18.61
2023-04-11T14:48:45.418Z,18.53
2023-04-11T14:51:12.430Z,18.58
2023-04-11T14:53:39.451Z,18.64
2023-04-11T14:56:07.439Z,18.36
2023-04-11T14:58:34.802Z,18.18
2023-04-11T15:01:02.483Z,18.04
2023-04-11T15:03:29.802Z,18.02
2023-04-11T15:05:57.040Z,18.05
2023-04-11T15:08:24.066Z,18.03
2023-04-11T15:10:54.764Z,18.07
2023-04-11T15:13:22.918Z,18.22
2023-04-11T15:15:50.177Z,18.28
2023-04-11T15:18:28.019Z,18.21
2023-04-11T15:21:04.556Z,18.14
2023-04-11T15:23:31.736Z,18.17
2023-04-11T15:26:03.426Z,18.26
2023-04-11T15:28:36.620Z,18.46
2023-04-11T15:31:08.189Z,18.53
2023-04-11T15:33:35.874Z,18.47
2023-04-11T15:36:03.156Z,18.32
2023-04-11T15:38:30.210Z,18.18
2023-04-11T15:41:00.084Z,18.23
2023-04-11T15:43:27.916Z,18.61
2023-04-11T15:45:55.254Z,19.13
2023-04-11T15:48:22.642Z,19.43
2023-04-11T15:50:50.995Z,19.19
2023-04-11T15:53:18.345Z,18.85
2023-04-11T15:55:47.079Z,18.72
2023-04-11T15:58:14.091Z,18.71
2023-04-11T16:00:47.063Z,18.73
2023-04-11T16:03:14.377Z,18.82
2023-04-11T16:05:43.243Z,18.92
2023-04-11T16:08:10.511Z,18.86
2023-04-11T16:10:37.711Z,18.93
2023-04-11T16:13:04.846Z,19.01
2023-04-11T16:15:32.438Z,19.03
2023-04-11T16:17:59.947Z,18.94
2023-04-11T16:20:27.200Z,18.73
2023-04-11T16:22:54.226Z,18.61
2023-04-11T16:25:21.850Z,18.44
2023-04-11T16:27:50.892Z,18.40
2023-04-11T16:30:17.931Z,18.28
2023-04-11T16:32:45.276Z,18.11
2023-04-11T16:35:12.605Z,17.88
2023-04-11T16:37:39.609Z,17.68
2023-04-11T16:40:11.765Z,17.47
2023-04-11T16:42:39.829Z,17.25
2023-04-11T16:45:08.774Z,17.09
2023-04-11T16:47:36.310Z,16.93
2023-04-11T16:50:05.373Z,16.83
2023-04-11T16:52:32.961Z,16.74
2023-04-11T16:55:00.207Z,16.68
2023-04-11T16:57:27.644Z,16.51
2023-04-11T16:59:54.765Z,16.40
2023-04-11T17:02:21.968Z,16.33
2023-04-11T17:04:49.365Z,16.29
2023-04-11T17:07:16.705Z,16.24
2023-04-11T17:09:47.039Z,16.20
2023-04-11T17:12:14.023Z,16.15
2023-04-11T17:14:41.309Z,16.12
2023-04-11T17:17:08.566Z,16.06
2023-04-11T17:19:35.802Z,15.97
2023-04-11T17:22:02.980Z,15.88
2023-04-11T17:24:30.118Z,15.84
2023-04-11T17:26:57.194Z,15.80
2023-04-11T17:29:24.284Z,15.72
2023-04-11T17:31:55.129Z,15.63
2023-04-11T17:34:22.334Z,15.54
2023-04-11T17:36:49.636Z,15.43
2023-04-11T17:39:18.057Z,15.33
2023-04-11T17:41:46.076Z,15.25
2023-04-11T17:44:13.729Z,15.17
2023-04-11T17:46:41.269Z,15.07
2023-04-11T17:49:08.895Z,14.99
2023-04-11T17:51:38.816Z,14.89
2023-04-11T17:54:08.661Z,14.81
2023-04-11T17:56:35.668Z,14.73
2023-04-11T17:59:02.733Z,14.64
2023-04-11T18:01:32.649Z,14.56
2023-04-11T18:04:01.867Z,14.51
2023-04-11T18:06:29.862Z,14.43
2023-04-11T18:08:57.346Z,14.35
2023-04-11T18:11:24.587Z,14.29
2023-04-11T18:13:52.475Z,14.20
2023-04-11T18:16:19.725Z,14.10
2023-04-11T18:18:48.846Z,14.01
2023-04-11T18:21:17.024Z,13.94
2023-04-11T18:23:44.205Z,13.86
2023-04-11T18:26:12.510Z,13.81
2023-04-11T18:28:39.513Z,13.76
2023-04-11T18:31:06.888Z,13.73
2023-04-11T18:33:35.478Z,13.68
2023-04-11T18:36:07.488Z,13.65
2023-04-11T18:38:34.482Z,13.58
2023-04-11T18:41:06.312Z,13.55
2023-04-11T18:43:34.508Z,13.53
2023-04-11T18:46:02.522Z,13.50
2023-04-11T18:48:30.799Z,13.42
2023-04-11T18:51:01.654Z,13.38
2023-04-11T18:53:30.068Z,13.31
2023-04-11T18:55:57.973Z,13.30
2023-04-11T18:58:26.392Z,13.28
2023-04-11T19:00:54.426Z,13.24
2023-04-11T19:03:23.918Z,13.22
2023-04-11T19:05:51.860Z,13.19
2023-04-11T19:08:18.965Z,13.16
2023-04-11T19:10:46.174Z,13.15
2023-04-11T19:13:14.376Z,13.13
2023-04-11T19:15:42.190Z,13.11
2023-04-11T19:18:10.469Z,13.08
2023-04-11T19:20:39.031Z,13.06
2023-04-11T19:23:06.297Z,13.04
2023-04-11T19:25:33.468Z,13.00
2023-04-11T19:28:00.774Z,13.01
2023-04-11T19:30:28.655Z,12.99
2023-04-11T19:32:56.287Z,12.99
2023-04-11T19:35:24.370Z,12.99
2023-04-11T19:37:51.566Z,12.96
2023-04-11T19:40:18.876Z,12.96
2023-04-11T19:42:46.188Z,12.94
2023-04-11T19:45:13.245Z,12.90
2023-04-11T19:47:41.695Z,12.87
2023-04-11T19:50:13.315Z,12.85
2023-04-11T19:52:42.091Z,12.84
2023-04-11T19:55:10.920Z,12.82
2023-04-11T19:57:39.135Z,12.78
2023-04-11T20:00:12.375Z,12.75
2023-04-11T20:02:44.655Z,12.72
2023-04-11T20:05:14.514Z,12.66
2023-04-11T20:07:42.561Z,12.64
2023-04-11T20:10:13.427Z,12.60
2023-04-11T20:12:40.997Z,12.58
2023-04-11T20:15:09.336Z,12.56
2023-04-11T20:17:36.606Z,12.56
2023-04-11T20:20:08.731Z,12.57
2023-04-11T20:22:38.313Z,12.55
2023-04-11T20:25:08.077Z,12.56
2023-04-11T20:27:35.325Z,12.55
2023-04-11T20:30:08.891Z,12.53
2023-04-11T20:32:36.978Z,12.51
2023-04-11T20:35:05.128Z,12.46
2023-04-11T20:37:34.505Z,12.41
2023-04-11T20:40:03.053Z,12.40
2023-04-11T20:42:32.069Z,12.39
2023-04-11T20:45:09.198Z,12.38
2023-04-11T20:47:37.788Z,12.36
2023-04-11T20:50:10.381Z,12.32
2023-04-11T20:52:38.201Z,12.31
2023-04-11T20:55:06.126Z,12.28
2023-04-11T20:57:33.763Z,12.25
2023-04-11T21:00:07.051Z,12.25
2023-04-11T21:02:34.409Z,12.26
2023-04-11T21:05:01.535Z,12.27
2023-04-11T21:07:28.590Z,12.25
2023-04-11T21:09:56.392Z,12.22
2023-04-11T21:12:23.425Z,12.20
2023-04-11T21:14:50.597Z,12.19
2023-04-11T21:17:17.739Z,12.19
2023-04-11T21:19:44.715Z,12.18
2023-04-11T21:22:12.929Z,12.18
2023-04-11T21:24:40.190Z,12.19
2023-04-11T21:27:07.285Z,12.17
2023-04-11T21:29:34.318Z,12.16
2023-04-11T21:32:01.495Z,12.16
2023-04-11T21:34:28.543Z,12.14
2023-04-11T21:36:57.149Z,12.13
2023-04-11T21:39:24.475Z,12.13
2023-04-11T21:41:51.513Z,12.09
2023-04-11T21:44:18.593Z,12.10
2023-04-11T21:46:45.623Z,12.10
2023-04-11T21:49:12.720Z,12.07
2023-04-11T21:51:39.735Z,12.05
2023-04-11T21:54:07.065Z,12.00
2023-04-11T21:56:34.146Z,11.95
2023-04-11T21:59:01.369Z,11.88
2023-04-11T22:01:29.233Z,11.84
2023-04-11T22:03:58.936Z,11.84
2023-04-11T22:06:27.901Z,11.81
2023-04-11T22:08:54.872Z,11.77
2023-04-11T22:11:21.885Z,11.73
2023-04-11T22:13:49.075Z,11.72
2023-04-11T22:16:16.128Z,11.67
2023-04-11T22:18:49.798Z,11.63
2023-04-11T22:21:21.236Z,11.60
2023-04-11T22:23:54.459Z,11.57
2023-04-11T22:26:29.516Z,11.55
2023-04-11T22:29:02.776Z,11.51
2023-04-11T22:31:30.810Z,11.46
2023-04-11T22:33:58.218Z,11.42
2023-04-11T22:36:25.410Z,11.37
2023-04-11T22:38:52.985Z,11.36
2023-04-11T22:41:20.424Z,11.31
2023-04-11T22:43:47.476Z,11.26
2023-04-11T22:46:14.584Z,11.25
2023-04-11T22:48:42.364Z,11.22
2023-04-11T22:51:09.374Z,11.19
2023-04-11T22:53:42.104Z,11.17
2023-04-11T22:56:11.131Z,11.12
2023-04-11T22:58:38.121Z,11.10
2023-04-11T23:01:06.390Z,11.07
2023-04-11T23:03:33.493Z,11.05
2023-04-11T23:06:00.761Z,10.99
2023-04-11T23:08:28.468Z,10.95
2023-04-11T23:10:55.452Z,10.91
2023-04-11T23:13:22.728Z,10.88
2023-04-11T23:15:49.791Z,10.81
2023-04-11T23:18:17.509Z,10.80
2023-04-11T23:20:47.605Z,10.76
2023-04-11T23:23:17.759Z,10.74
2023-04-11T23:25:45.527Z,10.71
2023-04-11T23:28:12.719Z,10.69
2023-04-11T23:30:40.376Z,10.66
2023-04-11T23:33:08.968Z,10.65
2023-04-11T23:35:37.494Z,10.62
2023-04-11T23:38:06.096Z,10.57
2023-04-11T23:40:33.582Z,10.50
2023-04-11T23:43:00.646Z,10.41
2023-04-11T23:45:27.815Z,10.38
2023-04-11T23:47:55.228Z,10.38
2023-04-11T23:50:22.429Z,10.39
2023-04-11T23:52:49.475Z,10.37
2023-04-11T23:55:16.620Z,10.31
2023-04-11T23:57:43.619Z,10.29
